KDMN/DMN METAR and TAF weather

Enter ICAO airport designator
Station Type Date Time Source
KDMN METAR 2018/07/19 06:53 UTC NOAA

KDMN 190653Z AUTO 24006KT 10SM CLR 24/13 A3011 RMK AO2 SLP107 T02440133 403560194


Station Type Date Time Source
KDMN Decoded METAR 2018/07/19 06:53 UTC NOAA

DEMING MUNICIPAL AIRPORT, NM, United States (KDMN) 32-16N 107-43W 1311M
Jul 19, 2018 - 02:53 AM EDT / 2018.07.19 0653 UTC
Wind: from the WSW (240 degrees) at 7 MPH (6 KT):0
Visibility: 10 mile(s):0
Sky conditions: clear
Temperature: 75.9 F (24.4 C)
Dew Point: 55.9 F (13.3 C)
Relative Humidity: 49%
Pressure (altimeter): 30.11 in. Hg (1019 hPa)
ob: KDMN 190653Z AUTO 24006KT 10SM CLR 24/13 A3011 RMK AO2 SLP107 T02440133 403560194
cycle: 7

Station Type Date Time Source
KDMN TAF 2018/07/19 06:27 UTC NOAA

TAF KDMN 190524Z 1906/2006 23006KT P6SM FEW100
FM190800 27009KT P6SM FEW120
FM192000 24008KT P6SM SCT100


Example: see airport list